Date,TemperatureHighF,TemperatureAvgF,TemperatureLowF,DewpointHighF,DewpointAvgF,DewpointLowF,HumidityHigh,HumidityAvg,HumidityLow,PressureMaxIn,PressureMinIn,WindSpeedMaxMPH,WindSpeedAvgMPH,GustSpeedMaxMPH,PrecipitationSumIn
2013-1-1,48.6,39.1,30.0,24.6,15.5,9.8,60,39,24,29.53,29.47,21,5,22,0.00
2013-1-2,50.7,40.6,27.9,22.9,14.8,7.8,64,36,24,29.50,29.38,15,5,17,224.37
2013-1-3,50.5,41.9,30.0,25.5,17.4,8.7,64,38,26,29.53,29.41,21,7,22,0.00
2013-1-4,52.2,45.5,39.0,21.4,16.3,12.3,44,31,23,29.53,29.41,17,7,112,0.00
2013-1-5,53.4,43.1,32.5,37.3,26.9,18.8,75,55,29,29.53,29.32,19,5,20,0.00
2013-1-6,47.5,42.3,33.6,37.0,31.4,23.7,77,66,41,29.44,29.29,17,4,18,0.00
2013-1-7,60.1,42.7,31.5,39.7,26.7,17.4,83,58,21,29.53,29.38,13,2,14,0.00
2013-1-8,58.3,47.0,36.5,34.2,23.6,0.0,72,41,22,29.47,29.38,11,4,12,0.00
2013-1-9,52.9,43.7,35.2,45.4,25.7,0.0,97,52,29,29.41,29.21,20,6,20,0.00
2013-1-10,54.9,42.2,34.7,16.3,11.9,0.0,43,30,17,29.44,29.29,13,6,15,0.00
2013-1-11,50.7,40.3,27.1,28.0,13.4,-57.5,59,35,19,29.50,29.35,13,5,14,0.00
2013-1-12,47.1,38.9,29.1,16.7,5.9,-1.5,46,26,19,29.50,29.38,13,4,13,0.00
2013-1-13,45.9,35.5,24.1,7.5,1.8,-4.1,44,25,17,29.53,29.41,15,4,16,0.00
2013-1-14,47.3,37.9,28.6,4.7,-0.2,-3.8,31,20,17,29.65,29.47,19,7,45,0.00
2013-1-15,48.7,37.3,25.3,11.7,5.1,-0.9,42,26,19,29.74,29.65,14,4,16,0.00
2013-1-16,50.4,43.3,34.2,14.2,8.5,3.9,40,24,19,29.68,29.50,20,8,22,0.00
2013-1-17,55.9,47.7,39.0,14.4,9.2,4.7,31,21,17,29.53,29.38,21,9,23,0.00
2013-1-18,59.4,49.4,38.8,16.1,10.7,2.3,28,21,17,29.47,29.38,15,7,16,0.00
2013-1-19,57.6,47.9,34.2,16.4,10.9,-1.5,41,23,17,29.50,29.38,19,6,21,0.00
2013-1-20,58.6,48.9,34.9,21.3,12.4,-4.8,44,24,17,29.47,29.35,15,6,16,0.00
2013-1-21,55.8,48.1,33.3,19.7,14.6,7.3,40,26,20,29.44,29.32,21,8,21,0.00
2013-1-22,59.0,50.5,41.9,23.7,17.1,11.0,41,26,22,29.35,29.23,26,9,29,0.00
2013-1-23,53.4,48.6,43.5,38.3,28.1,20.7,64,45,28,29.35,29.21,14,3,14,0.00
2013-1-24,52.7,50.6,48.7,45.2,38.1,29.5,79,63,42,29.44,29.32,19,4,21,0.00
2013-1-25,63.9,55.2,48.7,48.0,40.4,33.1,84,60,33,29.44,29.29,11,4,12,0.00
2013-1-26,58.6,50.5,45.0,47.4,30.3,14.7,84,52,19,29.32,29.21,18,8,201,370.04
2013-1-27,56.8,45.5,35.8,27.2,18.0,5.9,65,36,17,29.41,29.32,12,5,14,0.00
2013-1-28,58.8,46.0,33.8,26.1,18.8,10.0,60,36,17,29.53,29.38,12,5,13,0.00
2013-1-29,59.2,45.9,35.1,35.1,23.8,15.2,77,46,19,29.59,29.50,10,3,12,0.00
2013-1-30,62.1,51.8,39.0,20.7,15.4,8.4,45,24,16,29.59,29.50,18,6,21,0.00
2013-1-31,60.3,48.2,35.4,26.1,22.0,16.0,56,37,24,29.53,29.41,16,6,17,0.00